Battle Ground, Indiana
Current Conditions -  °F | °C
As of 10:54 PM on Sunday 23 Nov 2014 (Local Time) from KLAF Reporting Station
Moderate Rain Moderate Rain  
Wind Chill: 51°   Ceiling: 600
Heat Index: 51°   Visibility: 4mi
Dew Point: 51°   Wind: 0mph
Humidity: 100%   Direction: NA
Pressure: 29.16"   Gusts: NA
Location:  40.51°N, 86.84°W
Report Text: KLAF 240354Z AUTO 00000KT 4SM RA BR OVC006 11/11 A2916 RMK AO2 CIG 005V013 SLP872 P0016 T01060106 TSNO
Loading
Personal Weather Stations






























Interactive Weather Map New forecast layout! Learn more

10-Day Weather Forecast

Advertisements
Track Severe Weather on mobile